createdAt,value
2023-01-18T00:01:13.066Z,5.10
2023-01-18T00:03:42.205Z,4.85
2023-01-18T00:06:11.527Z,4.90
2023-01-18T00:08:40.982Z,5.00
2023-01-18T00:11:10.624Z,4.85
2023-01-18T00:13:40.479Z,4.85
2023-01-18T00:16:11.486Z,5.28
2023-01-18T00:18:39.428Z,4.72
2023-01-18T00:21:09.778Z,5.00
2023-01-18T00:23:38.037Z,4.70
2023-01-18T00:26:07.760Z,4.88
2023-01-18T00:28:35.668Z,4.65
2023-01-18T00:31:10.172Z,4.88
2023-01-18T00:33:37.836Z,4.80
2023-01-18T00:36:06.547Z,4.28
2023-01-18T00:38:34.115Z,4.20
2023-01-18T00:41:01.719Z,4.80
2023-01-18T00:43:40.319Z,4.25
2023-01-18T00:46:11.170Z,4.30
2023-01-18T00:48:40.504Z,4.32
2023-01-18T00:51:10.245Z,4.20
2023-01-18T00:53:38.945Z,4.13
2023-01-18T00:56:08.689Z,4.47
2023-01-18T00:58:37.487Z,7.57
2023-01-18T01:01:06.151Z,5.18
2023-01-18T01:03:55.433Z,7.78
2023-01-18T01:06:45.396Z,4.45
2023-01-18T01:09:14.989Z,3.53
2023-01-18T01:12:04.128Z,3.30
2023-01-18T01:14:49.743Z,3.80
2023-01-18T01:17:35.470Z,4.47
2023-01-18T01:20:22.067Z,4.10
2023-01-18T01:23:07.467Z,4.40
2023-01-18T01:25:54.897Z,4.00
2023-01-18T01:28:22.618Z,3.67
2023-01-18T01:30:50.415Z,3.97
2023-01-18T01:33:18.247Z,3.38
2023-01-18T01:35:47.931Z,6.55
2023-01-18T01:38:15.529Z,5.13
2023-01-18T01:40:43.151Z,3.90
2023-01-18T01:43:14.205Z,3.43
2023-01-18T01:45:41.963Z,3.75
2023-01-18T01:48:11.570Z,3.70
2023-01-18T01:50:40.729Z,4.60
2023-01-18T01:53:11.013Z,3.10
2023-01-18T01:55:40.326Z,3.50
2023-01-18T01:58:11.440Z,3.35
2023-01-18T02:00:39.110Z,3.15
2023-01-18T02:03:10.086Z,3.35
2023-01-18T02:05:43.397Z,3.33
2023-01-18T02:08:22.571Z,3.25
2023-01-18T02:10:50.549Z,3.55
2023-01-18T02:13:20.385Z,3.63
2023-01-18T02:15:54.932Z,4.30
2023-01-18T02:18:27.214Z,3.50
2023-01-18T02:21:17.639Z,3.00
2023-01-18T02:24:21.843Z,3.10
2023-01-18T02:26:58.110Z,2.92
2023-01-18T02:29:38.591Z,3.00
2023-01-18T02:32:17.899Z,2.92
2023-01-18T02:34:50.022Z,2.90
2023-01-18T02:37:26.310Z,2.38
2023-01-18T02:40:07.635Z,2.72
2023-01-18T02:42:57.313Z,2.70
2023-01-18T02:45:50.260Z,2.88
2023-01-18T02:48:20.691Z,3.00
2023-01-18T02:50:48.394Z,2.95
2023-01-18T02:53:17.100Z,2.80
2023-01-18T02:55:51.678Z,2.92
2023-01-18T02:58:25.710Z,3.20
2023-01-18T03:01:00.741Z,3.00
2023-01-18T03:03:29.542Z,3.20
2023-01-18T03:06:01.823Z,2.90
2023-01-18T03:08:36.827Z,3.00
2023-01-18T03:11:08.707Z,2.63
2023-01-18T03:13:56.549Z,2.83
2023-01-18T03:16:27.734Z,3.10
2023-01-18T03:19:01.534Z,2.72
2023-01-18T03:21:42.136Z,3.13
2023-01-18T03:24:10.355Z,2.90
2023-01-18T03:26:42.643Z,2.70
2023-01-18T03:29:30.343Z,2.60
2023-01-18T03:32:21.436Z,2.60
2023-01-18T03:34:53.661Z,2.43
2023-01-18T03:37:24.974Z,2.10
2023-01-18T03:39:57.657Z,2.20
2023-01-18T03:42:29.121Z,2.40
2023-01-18T03:45:03.991Z,2.30
2023-01-18T03:47:33.271Z,2.22
2023-01-18T03:50:00.910Z,2.20
2023-01-18T03:52:37.583Z,2.20
2023-01-18T03:55:10.746Z,2.35
2023-01-18T03:57:44.103Z,2.20
2023-01-18T04:00:13.578Z,2.20
2023-01-18T04:02:45.155Z,1.90
2023-01-18T04:05:13.145Z,1.80
2023-01-18T04:07:40.747Z,1.92
2023-01-18T04:10:09.466Z,1.73
2023-01-18T04:12:37.238Z,1.95
2023-01-18T04:15:05.631Z,1.75
2023-01-18T04:17:33.188Z,1.80
2023-01-18T04:20:02.127Z,1.85
2023-01-18T04:22:29.724Z,1.88
2023-01-18T04:24:57.385Z,1.80
2023-01-18T04:27:26.079Z,1.60
2023-01-18T04:29:53.736Z,1.60
2023-01-18T04:32:21.291Z,1.83
2023-01-18T04:34:48.900Z,1.85
2023-01-18T04:37:17.838Z,1.80
2023-01-18T04:39:47.449Z,2.00
2023-01-18T04:42:14.977Z,2.10
2023-01-18T04:44:42.604Z,1.98
2023-01-18T04:47:10.176Z,1.90
2023-01-18T04:49:37.739Z,1.70
2023-01-18T04:52:07.178Z,2.30
2023-01-18T04:54:36.112Z,2.20
2023-01-18T04:57:03.756Z,2.08
2023-01-18T04:59:31.341Z,1.98
2023-01-18T05:01:58.924Z,2.17
2023-01-18T05:04:26.603Z,2.30
2023-01-18T05:06:54.163Z,2.47
2023-01-18T05:09:21.731Z,2.50
2023-01-18T05:11:50.634Z,2.70
2023-01-18T05:14:18.448Z,2.70
2023-01-18T05:16:46.031Z,2.70
2023-01-18T05:19:13.638Z,3.10
2023-01-18T05:21:41.206Z,2.88
2023-01-18T05:24:08.802Z,2.80
2023-01-18T05:26:36.444Z,2.90
2023-01-18T05:29:05.446Z,2.90
2023-01-18T05:31:33.102Z,3.13
2023-01-18T05:34:00.708Z,4.07
2023-01-18T05:36:28.283Z,3.60
2023-01-18T05:38:56.163Z,3.30
2023-01-18T05:41:23.761Z,3.40
2023-01-18T05:43:51.366Z,3.40
2023-01-18T05:46:20.345Z,3.28
2023-01-18T05:48:48.130Z,3.40
2023-01-18T05:51:15.724Z,3.30
2023-01-18T05:53:43.263Z,3.00
2023-01-18T05:56:11.129Z,3.08
2023-01-18T05:58:39.390Z,3.50
2023-01-18T06:01:07.745Z,3.13
2023-01-18T06:03:37.200Z,2.95
2023-01-18T06:06:04.959Z,3.20
2023-01-18T06:08:32.588Z,3.20
2023-01-18T06:11:00.890Z,3.67
2023-01-18T06:13:30.746Z,3.67
2023-01-18T06:15:59.328Z,3.40
2023-01-18T06:18:29.345Z,3.58
2023-01-18T06:21:01.284Z,3.50
2023-01-18T06:23:30.078Z,3.20
2023-01-18T06:25:57.680Z,3.30
2023-01-18T06:28:26.169Z,3.28
2023-01-18T06:30:54.880Z,3.50
2023-01-18T06:33:23.097Z,3.70
2023-01-18T06:35:50.763Z,3.38
2023-01-18T06:38:20.642Z,3.35
2023-01-18T06:40:48.365Z,3.22
2023-01-18T06:43:16.772Z,3.42
2023-01-18T06:45:44.715Z,3.80
2023-01-18T06:48:12.408Z,3.22
2023-01-18T06:50:40.004Z,2.97
2023-01-18T06:53:07.555Z,3.00
2023-01-18T06:55:36.438Z,2.95
2023-01-18T06:58:04.045Z,2.80
2023-01-18T07:00:32.244Z,3.00
2023-01-18T07:03:00.156Z,3.28
2023-01-18T07:05:28.011Z,2.70
2023-01-18T07:07:55.558Z,2.78
2023-01-18T07:10:23.138Z,2.58
2023-01-18T07:12:52.048Z,2.63
2023-01-18T07:15:22.186Z,2.72
2023-01-18T07:17:51.246Z,2.67
2023-01-18T07:20:19.915Z,2.40
2023-01-18T07:22:52.018Z,2.80
2023-01-18T07:25:20.637Z,2.65
2023-01-18T07:27:49.771Z,2.65
2023-01-18T07:30:19.337Z,2.67
2023-01-18T07:32:49.689Z,2.90
2023-01-18T07:35:18.404Z,3.05
2023-01-18T07:37:49.349Z,2.78
2023-01-18T07:40:17.885Z,3.40
2023-01-18T07:42:45.799Z,2.90
2023-01-18T07:45:13.900Z,3.00
2023-01-18T07:47:46.042Z,2.85
2023-01-18T07:50:14.263Z,3.20
2023-01-18T07:52:41.861Z,3.03
2023-01-18T07:55:10.167Z,3.35
2023-01-18T07:57:38.110Z,3.10
2023-01-18T08:00:07.726Z,2.92
2023-01-18T08:02:35.460Z,2.95
2023-01-18T08:05:04.779Z,2.88
2023-01-18T08:07:33.234Z,2.60
2023-01-18T08:10:00.792Z,2.78
2023-01-18T08:12:28.495Z,4.80
2023-01-18T08:14:56.120Z,5.05
2023-01-18T08:17:23.747Z,10.93
2023-01-18T08:19:51.373Z,3.40
2023-01-18T08:22:20.270Z,7.00
2023-01-18T08:24:47.809Z,3.70
2023-01-18T08:27:16.655Z,6.38
2023-01-18T08:29:44.244Z,4.55
2023-01-18T08:32:11.822Z,4.32
2023-01-18T08:34:39.659Z,3.17
2023-01-18T08:37:07.245Z,3.70
2023-01-18T08:39:36.148Z,3.90
2023-01-18T08:42:03.719Z,4.20
2023-01-18T08:44:31.327Z,2.90
2023-01-18T08:46:58.883Z,2.53
2023-01-18T08:49:27.497Z,2.60
2023-01-18T08:51:55.033Z,2.67
2023-01-18T08:54:22.721Z,2.30
2023-01-18T08:56:52.377Z,2.22
2023-01-18T08:59:20.470Z,2.80
2023-01-18T09:01:48.175Z,6.22
2023-01-18T09:04:15.851Z,4.33
2023-01-18T09:06:44.591Z,3.60
2023-01-18T09:09:12.885Z,2.88
2023-01-18T09:11:40.518Z,2.42
2023-01-18T09:14:09.463Z,2.53
2023-01-18T09:16:36.995Z,2.40
2023-01-18T09:19:06.429Z,3.28
2023-01-18T09:21:34.355Z,4.28
2023-01-18T09:24:02.098Z,3.70
2023-01-18T09:26:30.441Z,4.57
2023-01-18T09:28:58.259Z,4.40
2023-01-18T09:31:28.600Z,2.30
2023-01-18T09:34:00.993Z,2.10
2023-01-18T09:36:41.467Z,2.58
2023-01-18T09:39:09.347Z,2.00
2023-01-18T09:41:38.931Z,1.60
2023-01-18T09:44:09.612Z,2.30
2023-01-18T09:46:42.065Z,1.77
2023-01-18T09:49:19.205Z,2.28
2023-01-18T09:51:57.478Z,1.90
2023-01-18T09:54:36.269Z,1.80
2023-01-18T09:57:14.034Z,1.70
2023-01-18T09:59:47.190Z,1.67
2023-01-18T10:02:23.677Z,2.00
2023-01-18T10:04:55.637Z,1.67
2023-01-18T10:07:26.905Z,1.50
2023-01-18T10:10:19.857Z,1.40
2023-01-18T10:12:55.807Z,1.65
2023-01-18T10:15:29.801Z,1.40
2023-01-18T10:18:00.831Z,1.43
2023-01-18T10:20:37.785Z,3.53
2023-01-18T10:23:13.423Z,1.90
2023-01-18T10:25:47.135Z,2.17
2023-01-18T10:28:28.437Z,1.90
2023-01-18T10:31:03.831Z,1.35
2023-01-18T10:33:37.347Z,2.05
2023-01-18T10:36:12.147Z,1.80
2023-01-18T10:38:41.815Z,1.60
2023-01-18T10:41:18.184Z,1.50
2023-01-18T10:43:45.810Z,2.05
2023-01-18T10:46:18.733Z,1.77
2023-01-18T10:48:49.825Z,1.70
2023-01-18T10:51:31.250Z,1.50
2023-01-18T10:53:59.545Z,1.70
2023-01-18T10:56:29.452Z,1.52
2023-01-18T10:58:59.993Z,1.30
2023-01-18T11:01:30.090Z,1.40
2023-01-18T11:04:05.826Z,1.50
2023-01-18T11:06:46.369Z,1.52
2023-01-18T11:09:40.091Z,1.63
2023-01-18T11:12:37.284Z,1.80
2023-01-18T11:15:23.687Z,1.90
2023-01-18T11:18:09.330Z,2.22
2023-01-18T11:20:46.200Z,2.08
2023-01-18T11:23:22.831Z,2.35
2023-01-18T11:25:56.475Z,2.15
2023-01-18T11:28:26.946Z,2.30
2023-01-18T11:30:57.801Z,2.35
2023-01-18T11:33:27.784Z,2.40
2023-01-18T11:35:59.795Z,2.40
2023-01-18T11:38:30.832Z,2.60
2023-01-18T11:41:07.630Z,2.30
2023-01-18T11:43:39.330Z,2.50
2023-01-18T11:46:23.641Z,2.35
2023-01-18T11:48:55.693Z,2.10
2023-01-18T11:51:32.592Z,2.03
2023-01-18T11:54:06.849Z,2.10
2023-01-18T11:56:40.727Z,2.63
2023-01-18T11:59:15.652Z,2.53
2023-01-18T12:01:56.552Z,2.53
2023-01-18T12:04:38.100Z,2.80
2023-01-18T12:07:19.553Z,5.85
2023-01-18T12:09:53.223Z,3.50
2023-01-18T12:12:37.205Z,4.80
2023-01-18T12:15:24.493Z,4.80
2023-01-18T12:18:13.074Z,4.72
2023-01-18T12:20:50.730Z,3.92
2023-01-18T12:23:45.953Z,3.58
2023-01-18T12:26:24.712Z,5.55
2023-01-18T12:29:14.191Z,5.53
2023-01-18T12:31:55.888Z,7.03
2023-01-18T12:34:27.303Z,5.30
2023-01-18T12:37:14.850Z,4.20
2023-01-18T12:39:55.731Z,4.57
2023-01-18T12:42:35.085Z,4.22
2023-01-18T12:45:15.891Z,4.23
2023-01-18T12:47:56.026Z,6.50
2023-01-18T12:50:28.048Z,5.30
2023-01-18T12:53:01.039Z,4.80
2023-01-18T12:55:34.211Z,3.83
2023-01-18T12:58:04.392Z,3.80
2023-01-18T13:00:37.315Z,4.57
2023-01-18T13:03:11.364Z,4.28
2023-01-18T13:05:51.059Z,4.32
2023-01-18T13:08:26.852Z,4.80
2023-01-18T13:11:02.776Z,5.28
2023-01-18T13:13:31.448Z,5.45
2023-01-18T13:16:10.251Z,5.83
2023-01-18T13:18:45.485Z,4.78
2023-01-18T13:21:21.469Z,6.00
2023-01-18T13:23:55.043Z,3.95
2023-01-18T13:26:29.560Z,5.35
2023-01-18T13:29:17.748Z,5.50
2023-01-18T13:31:46.021Z,4.05
2023-01-18T13:34:29.806Z,4.28
2023-01-18T13:37:13.426Z,3.73
2023-01-18T13:39:46.292Z,3.95
2023-01-18T13:42:37.981Z,3.60
2023-01-18T13:45:17.165Z,4.15
2023-01-18T13:47:58.212Z,4.43
2023-01-18T13:50:48.135Z,3.80
2023-01-18T13:53:31.638Z,3.33
2023-01-18T13:56:34.691Z,4.38
2023-01-18T13:59:17.693Z,4.55
2023-01-18T14:01:49.245Z,5.40
2023-01-18T14:04:25.214Z,5.15
2023-01-18T14:06:55.802Z,5.27
2023-01-18T14:09:36.232Z,5.45
2023-01-18T14:12:05.206Z,7.07
2023-01-18T14:14:36.190Z,7.18
2023-01-18T14:17:15.049Z,9.43
2023-01-18T14:20:04.156Z,12.57
2023-01-18T14:22:45.147Z,7.00
2023-01-18T14:25:32.456Z,5.40
2023-01-18T14:28:06.890Z,4.20
2023-01-18T14:30:38.076Z,4.60
2023-01-18T14:33:13.344Z,3.78
2023-01-18T14:35:51.893Z,3.30
2023-01-18T14:38:20.088Z,5.00
2023-01-18T14:40:50.222Z,4.68
2023-01-18T14:43:24.913Z,4.53
2023-01-18T14:45:58.650Z,5.32
2023-01-18T14:48:27.271Z,4.28
2023-01-18T14:50:56.597Z,3.38
2023-01-18T14:53:27.698Z,7.32
2023-01-18T14:56:10.598Z,3.05
2023-01-18T14:58:41.162Z,6.78
2023-01-18T15:01:27.572Z,10.95
2023-01-18T15:03:57.176Z,17.05
2023-01-18T15:06:33.313Z,29.33
2023-01-18T15:09:02.608Z,38.13
2023-01-18T15:11:30.611Z,14.70
2023-01-18T15:13:59.213Z,19.70
2023-01-18T15:16:31.017Z,13.93
2023-01-18T15:19:01.558Z,8.63
2023-01-18T15:21:31.859Z,27.15
2023-01-18T15:24:04.001Z,13.00
2023-01-18T15:26:37.332Z,10.98
2023-01-18T15:29:14.850Z,4.50
2023-01-18T15:31:53.552Z,3.90
2023-01-18T15:34:27.486Z,4.18
2023-01-18T15:36:56.799Z,18.92
2023-01-18T15:39:24.441Z,17.90
2023-01-18T15:41:53.182Z,7.47
2023-01-18T15:44:34.618Z,5.18
2023-01-18T15:47:15.467Z,5.80
2023-01-18T15:49:45.225Z,6.22
2023-01-18T15:52:12.872Z,12.48
2023-01-18T15:54:40.974Z,8.05
2023-01-18T15:57:14.321Z,6.55
2023-01-18T15:59:42.826Z,5.97
2023-01-18T16:02:22.938Z,4.43
2023-01-18T16:05:08.438Z,4.88
2023-01-18T16:07:39.086Z,4.65
2023-01-18T16:10:30.314Z,4.77
2023-01-18T16:13:30.612Z,8.02
2023-01-18T16:16:09.379Z,6.28
2023-01-18T16:18:38.356Z,7.55
2023-01-18T16:21:13.899Z,12.18
2023-01-18T16:23:46.320Z,9.30
2023-01-18T16:26:15.653Z,6.10
2023-01-18T16:28:43.360Z,5.88
2023-01-18T16:31:11.106Z,6.18
2023-01-18T16:33:40.831Z,6.97
2023-01-18T16:36:17.929Z,8.55
2023-01-18T16:38:46.122Z,5.18
2023-01-18T16:41:15.019Z,5.70
2023-01-18T16:43:44.890Z,5.20
2023-01-18T16:46:13.054Z,5.13
2023-01-18T16:48:42.073Z,4.88
2023-01-18T16:51:17.068Z,5.43
2023-01-18T16:53:44.697Z,5.47
2023-01-18T16:56:15.809Z,5.07
2023-01-18T16:58:43.614Z,4.70
2023-01-18T17:01:14.196Z,5.30
2023-01-18T17:03:43.258Z,5.43
2023-01-18T17:06:17.931Z,6.40
2023-01-18T17:08:46.457Z,6.05
2023-01-18T17:11:14.164Z,5.90
2023-01-18T17:13:41.919Z,5.53
2023-01-18T17:16:14.797Z,5.03
2023-01-18T17:18:44.573Z,4.90
2023-01-18T17:21:13.143Z,5.80
2023-01-18T17:23:41.162Z,5.82
2023-01-18T17:26:08.993Z,8.97
2023-01-18T17:28:36.628Z,6.47
2023-01-18T17:31:04.369Z,6.50
2023-01-18T17:33:32.572Z,6.55
2023-01-18T17:36:01.514Z,10.00
2023-01-18T17:40:58.604Z,6.55
2023-01-18T17:43:33.928Z,6.63
2023-01-18T17:46:04.186Z,8.07
2023-01-18T17:48:32.018Z,8.30
2023-01-18T17:51:01.004Z,7.95
2023-01-18T17:53:28.770Z,7.78
2023-01-18T17:55:56.449Z,7.80
2023-01-18T17:58:24.147Z,10.85
2023-01-18T18:00:51.876Z,21.40
2023-01-18T18:03:20.270Z,15.60
2023-01-18T18:05:48.348Z,10.47
2023-01-18T18:08:20.893Z,8.35
2023-01-18T18:10:49.068Z,9.20
2023-01-18T18:13:16.777Z,8.55
2023-01-18T18:15:46.672Z,18.80
2023-01-18T18:18:22.672Z,12.15
2023-01-18T18:20:51.936Z,11.10
2023-01-18T18:23:20.885Z,14.70
2023-01-18T18:25:48.994Z,12.77
2023-01-18T18:28:16.627Z,12.15
2023-01-18T18:30:46.580Z,8.45
2023-01-18T18:33:14.147Z,9.48
2023-01-18T18:35:41.857Z,12.43
2023-01-18T18:38:09.607Z,10.57
2023-01-18T18:40:38.593Z,9.40
2023-01-18T18:43:06.621Z,9.30
2023-01-18T18:45:34.974Z,17.02
2023-01-18T18:48:02.624Z,35.42
2023-01-18T18:50:30.907Z,34.08
2023-01-18T18:52:59.012Z,37.80
2023-01-18T18:55:26.829Z,12.48
2023-01-18T18:57:55.764Z,14.68
2023-01-18T19:00:24.589Z,13.30
2023-01-18T19:02:52.306Z,10.32
2023-01-18T19:05:20.190Z,12.43
2023-01-18T19:07:51.116Z,10.20
2023-01-18T19:10:19.902Z,40.75
2023-01-18T19:12:47.563Z,13.95
2023-01-18T19:15:17.741Z,14.52
2023-01-18T19:17:45.380Z,9.20
2023-01-18T19:20:15.754Z,10.13
2023-01-18T19:22:43.898Z,10.10
2023-01-18T19:25:11.538Z,14.65
2023-01-18T19:27:39.335Z,11.32
2023-01-18T19:30:12.879Z,9.85
2023-01-18T19:32:41.939Z,10.95
2023-01-18T19:35:10.189Z,10.02
2023-01-18T19:37:38.619Z,8.60
2023-01-18T19:40:07.620Z,9.02
2023-01-18T19:42:35.412Z,8.35
2023-01-18T19:45:04.768Z,8.38
2023-01-18T19:47:32.913Z,7.90
2023-01-18T19:50:03.047Z,7.28
2023-01-18T19:52:31.880Z,6.80
2023-01-18T19:55:00.422Z,7.13
2023-01-18T19:57:28.135Z,7.90
2023-01-18T19:59:56.983Z,9.23
2023-01-18T20:02:25.085Z,9.50
2023-01-18T20:04:53.209Z,7.35
2023-01-18T20:07:22.319Z,8.15
2023-01-18T20:09:50.162Z,8.47
2023-01-18T20:12:18.541Z,7.90
2023-01-18T20:14:46.436Z,9.07
2023-01-18T20:17:15.474Z,9.00
2023-01-18T20:19:44.184Z,8.90
2023-01-18T20:22:12.215Z,9.45
2023-01-18T20:24:41.316Z,10.55
2023-01-18T20:27:16.389Z,9.35
2023-01-18T20:29:45.012Z,9.13
2023-01-18T20:32:17.789Z,10.10
2023-01-18T20:34:46.754Z,8.43
2023-01-18T20:37:15.100Z,10.30
2023-01-18T20:39:44.466Z,7.78
2023-01-18T20:42:12.226Z,7.85
2023-01-18T20:44:40.531Z,7.65
2023-01-18T20:47:09.445Z,7.05
2023-01-18T20:49:40.366Z,5.40
2023-01-18T20:52:08.455Z,7.85
2023-01-18T20:54:36.777Z,12.48
2023-01-18T20:57:06.465Z,10.27
2023-01-18T20:59:34.436Z,10.63
2023-01-18T21:02:02.920Z,13.82
2023-01-18T21:04:31.056Z,11.35
2023-01-18T21:06:58.915Z,10.98
2023-01-18T21:09:27.024Z,7.75
2023-01-18T21:11:54.663Z,6.43
2023-01-18T21:14:23.708Z,7.40
2023-01-18T21:16:51.294Z,7.32
2023-01-18T21:19:18.858Z,7.75
2023-01-18T21:21:46.456Z,8.40
2023-01-18T21:24:14.045Z,7.97
2023-01-18T21:26:41.685Z,8.30
2023-01-18T21:29:09.278Z,7.00
2023-01-18T21:31:40.151Z,6.60
2023-01-18T21:34:08.538Z,6.72
2023-01-18T21:36:36.175Z,6.38
2023-01-18T21:39:03.836Z,6.30
2023-01-18T21:41:49.167Z,6.30
2023-01-18T21:44:34.979Z,6.65
2023-01-18T21:47:04.060Z,5.85
2023-01-18T21:50:16.062Z,6.43
2023-01-18T21:52:56.411Z,6.10
2023-01-18T21:55:24.115Z,6.32
2023-01-18T21:58:05.650Z,6.53
2023-01-18T22:00:33.711Z,6.18
2023-01-18T22:03:02.644Z,6.30
2023-01-18T22:05:30.219Z,9.00
2023-01-18T22:07:58.371Z,9.27
2023-01-18T22:10:51.511Z,10.30
2023-01-18T22:13:19.286Z,7.68
2023-01-18T22:15:47.015Z,18.00
2023-01-18T22:18:15.917Z,21.75
2023-01-18T22:20:43.621Z,14.10
2023-01-18T22:23:11.860Z,12.13
2023-01-18T22:25:39.587Z,10.55
2023-01-18T22:28:07.158Z,8.93
2023-01-18T22:30:34.736Z,10.23
2023-01-18T22:33:02.289Z,10.25
2023-01-18T22:35:32.606Z,10.75
2023-01-18T22:38:00.450Z,14.02
2023-01-18T22:40:28.232Z,14.98
2023-01-18T22:42:56.864Z,10.93
2023-01-18T22:45:24.615Z,10.40
2023-01-18T22:47:52.179Z,10.43
2023-01-18T22:50:19.961Z,11.30
2023-01-18T22:52:48.816Z,12.27
2023-01-18T22:55:16.619Z,12.32
2023-01-18T22:57:44.186Z,11.27
2023-01-18T23:00:12.942Z,11.13
2023-01-18T23:02:40.523Z,13.68
2023-01-18T23:05:08.802Z,12.23
2023-01-18T23:07:36.418Z,10.48
2023-01-18T23:10:05.661Z,9.10
2023-01-18T23:12:33.265Z,12.18
2023-01-18T23:15:18.420Z,13.85
2023-01-18T23:17:46.021Z,12.60
2023-01-18T23:20:15.384Z,9.50
2023-01-18T23:22:44.583Z,7.93
2023-01-18T23:25:13.570Z,8.68
2023-01-18T23:27:41.370Z,11.88
2023-01-18T23:30:10.334Z,18.25
2023-01-18T23:32:38.003Z,12.57
2023-01-18T23:35:07.105Z,9.68
2023-01-18T23:37:34.663Z,8.80
2023-01-18T23:40:19.619Z,10.25
2023-01-18T23:43:06.485Z,10.95
2023-01-18T23:45:51.574Z,10.38
2023-01-18T23:48:39.590Z,9.93
2023-01-18T23:51:27.239Z,8.32
2023-01-18T23:54:12.963Z,7.25
2023-01-18T23:56:40.559Z,7.10
2023-01-18T23:59:09.959Z,6.95
